< < Back
Terminal Aerodrome Forecast


Current Version              Previous Versions:   1  2  3  4  5  6  7  8  9  

Terminal Aerodrome Forecast

408
FTUS44 KBMX 232300
TAFANB
TAF
KANB 232327Z 2400/2424 VRB02KT P6SM SCT250
     FM241800 33006KT P6SM SKC=

Latest METAR

015
SAUS70 KWBC 250000
MTRANB
METAR KANB 242353Z AUTO 32005KT 10SM CLR 19/02 A3004 RMK AO2 SLP172
T01940022 10239 20194 53003


USA.gov is the U.S. government's official web portal to all federal, state and local government web resources and services.